createdAt,value
2022-10-15T00:00:08.556Z,68.91
2022-10-15T00:05:08.416Z,68.92
2022-10-15T00:10:08.169Z,68.91
2022-10-15T00:15:07.892Z,68.91
2022-10-15T00:20:08.568Z,68.92
2022-10-15T00:25:08.321Z,68.94
2022-10-15T00:30:08.026Z,68.91
2022-10-15T00:35:07.751Z,68.95
2022-10-15T00:40:08.489Z,68.94
2022-10-15T00:45:08.168Z,68.94
2022-10-15T00:50:07.879Z,68.93
2022-10-15T00:55:08.584Z,68.95
2022-10-15T01:00:08.296Z,68.96
2022-10-15T01:05:07.997Z,68.97
2022-10-15T01:10:07.697Z,68.99
2022-10-15T01:15:08.426Z,69.0
2022-10-15T01:20:08.127Z,69.0
2022-10-15T01:25:07.888Z,69.02
2022-10-15T01:30:18.623Z,69.04
2022-10-15T01:35:08.289Z,69.07
2022-10-15T01:40:07.976Z,69.08
2022-10-15T01:45:07.647Z,69.09
2022-10-15T01:50:08.338Z,69.12
2022-10-15T01:55:08.033Z,69.12
2022-10-15T02:00:07.714Z,69.14
2022-10-15T02:05:08.424Z,69.15
2022-10-15T02:10:08.124Z,69.15
2022-10-15T02:15:07.854Z,69.16
2022-10-15T02:20:08.552Z,69.17
2022-10-15T02:25:08.246Z,69.18
2022-10-15T02:30:07.992Z,69.2
2022-10-15T02:35:07.729Z,69.21
2022-10-15T02:40:08.429Z,69.23
2022-10-15T02:45:08.282Z,69.23
2022-10-15T02:50:08.010Z,69.25
2022-10-15T02:55:07.714Z,69.26
2022-10-15T03:00:08.413Z,69.28
2022-10-15T03:05:08.141Z,69.3
2022-10-15T03:10:07.924Z,69.29
2022-10-15T03:15:08.625Z,69.28
2022-10-15T03:20:08.368Z,69.28
2022-10-15T03:25:08.069Z,69.3
2022-10-15T03:30:07.768Z,69.31
2022-10-15T03:35:08.503Z,69.3
2022-10-15T03:40:11.961Z,69.3
2022-10-15T03:45:08.358Z,69.29
2022-10-15T03:50:08.043Z,69.28
2022-10-15T03:55:07.752Z,69.3
2022-10-15T04:00:08.466Z,69.31
2022-10-15T04:05:02.466Z,69.3
2022-10-15T04:10:02.654Z,69.31
2022-10-15T04:15:02.601Z,69.32
2022-10-15T04:20:03.795Z,69.31
2022-10-15T04:25:02.594Z,69.28
2022-10-15T04:30:02.865Z,69.29
2022-10-15T04:35:03.002Z,69.3
2022-10-15T04:40:01.990Z,69.28
2022-10-15T04:45:01.954Z,69.27
2022-10-15T04:50:02.250Z,69.26
2022-10-15T04:55:02.251Z,69.27
2022-10-15T05:00:02.397Z,69.26
2022-10-15T05:05:02.344Z,69.24
2022-10-15T05:10:02.445Z,69.21
2022-10-15T05:15:02.451Z,69.24
2022-10-15T05:20:02.558Z,69.24
2022-10-15T05:25:02.725Z,69.23
2022-10-15T05:30:03.006Z,69.2
2022-10-15T05:35:02.147Z,69.21
2022-10-15T05:40:02.166Z,69.2
2022-10-15T05:45:02.145Z,69.19
2022-10-15T05:50:02.106Z,69.17
2022-10-15T05:55:02.117Z,69.18
2022-10-15T06:00:02.069Z,69.16
2022-10-15T06:05:01.908Z,69.13
2022-10-15T06:10:02.803Z,69.14
2022-10-15T06:15:02.590Z,69.13
2022-10-15T06:20:02.514Z,69.12
2022-10-15T06:25:02.474Z,69.13
2022-10-15T06:30:02.295Z,69.11
2022-10-15T06:35:02.163Z,69.13
2022-10-15T06:40:02.349Z,69.12
2022-10-15T06:45:02.178Z,69.12
2022-10-15T06:50:02.537Z,69.14
2022-10-15T06:55:02.711Z,69.11
2022-10-15T07:00:02.641Z,69.1
2022-10-15T07:05:02.578Z,69.11
2022-10-15T07:10:02.713Z,69.08
2022-10-15T07:15:02.585Z,69.07
2022-10-15T07:20:03.199Z,69.07
2022-10-15T07:25:02.113Z,69.07
2022-10-15T07:30:02.018Z,69.05
2022-10-15T07:35:11.765Z,69.07
2022-10-15T07:40:03.021Z,69.06
2022-10-15T07:45:01.922Z,69.04
2022-10-15T07:50:02.938Z,69.01
2022-10-15T07:55:03.191Z,69.03
2022-10-15T08:00:02.273Z,69.01
2022-10-15T08:05:02.191Z,69.02
2022-10-15T08:10:02.166Z,69.0
2022-10-15T08:15:02.748Z,69.02
2022-10-15T08:20:02.873Z,68.98
2022-10-15T08:25:02.942Z,68.97
2022-10-15T08:30:02.730Z,68.96
2022-10-15T08:35:02.542Z,68.95
2022-10-15T08:40:02.366Z,68.92
2022-10-15T08:45:02.495Z,68.93
2022-10-15T08:50:02.311Z,68.89
2022-10-15T08:55:02.252Z,68.9
2022-10-15T09:00:02.068Z,68.85
2022-10-15T09:05:02.050Z,68.81
2022-10-15T09:10:02.176Z,68.78
2022-10-15T09:15:02.233Z,68.74
2022-10-15T09:20:02.244Z,68.72
2022-10-15T09:25:02.271Z,68.69
2022-10-15T09:30:02.188Z,68.65
2022-10-15T09:35:02.081Z,68.63
2022-10-15T09:40:01.942Z,68.58
2022-10-15T09:45:02.077Z,68.57
2022-10-15T09:50:02.128Z,68.51
2022-10-15T09:55:02.076Z,68.48
2022-10-15T10:00:02.176Z,68.47
2022-10-15T10:05:04.242Z,68.42
2022-10-15T10:10:03.025Z,68.38
2022-10-15T10:15:02.108Z,68.36
2022-10-15T10:20:12.050Z,68.33
2022-10-15T10:25:02.066Z,68.28
2022-10-15T10:30:02.365Z,68.3
2022-10-15T10:35:02.293Z,68.28
2022-10-15T10:40:02.646Z,68.28
2022-10-15T10:45:02.865Z,68.26
2022-10-15T10:50:01.974Z,68.25
2022-10-15T10:55:02.530Z,68.24
2022-10-15T11:00:02.694Z,68.25
2022-10-15T11:05:02.641Z,68.26
2022-10-15T11:10:02.691Z,68.25
2022-10-15T11:15:02.786Z,68.27
2022-10-15T11:20:35.238Z,68.29
2022-10-15T11:25:07.050Z,68.29
2022-10-15T11:30:02.388Z,68.3
2022-10-15T11:35:02.227Z,68.32
2022-10-15T11:40:02.197Z,68.35
2022-10-15T11:45:01.911Z,68.37
2022-10-15T11:50:02.153Z,68.38
2022-10-15T11:55:02.096Z,68.38
2022-10-15T12:00:02.591Z,68.44
2022-10-15T12:05:12.509Z,68.43
2022-10-15T12:10:02.605Z,68.46
2022-10-15T12:15:02.888Z,68.46
2022-10-15T12:20:02.958Z,68.48
2022-10-15T12:25:01.909Z,68.47
2022-10-15T12:30:02.855Z,68.48
2022-10-15T12:35:02.724Z,68.48
2022-10-15T12:40:02.849Z,68.49
2022-10-15T12:45:03.140Z,68.49
2022-10-15T12:50:02.311Z,68.5
2022-10-15T12:55:02.835Z,68.49
2022-10-15T13:00:01.905Z,68.53
2022-10-15T13:05:02.965Z,68.51
2022-10-15T13:10:01.995Z,68.51
2022-10-15T13:15:02.697Z,68.53
2022-10-15T13:20:02.765Z,68.5
2022-10-15T13:25:02.814Z,68.52
2022-10-15T13:30:02.855Z,68.51
2022-10-15T13:35:02.939Z,68.5
2022-10-15T13:40:07.533Z,68.49
2022-10-15T13:45:02.523Z,68.5
2022-10-15T13:50:12.500Z,68.47
2022-10-15T13:55:02.464Z,68.46
2022-10-15T14:00:02.527Z,68.43
2022-10-15T14:05:02.418Z,68.4
2022-10-15T14:10:02.324Z,68.38
2022-10-15T14:15:02.642Z,68.38
2022-10-15T14:20:25.751Z,68.38
2022-10-15T14:25:02.705Z,68.37
2022-10-15T14:30:02.627Z,68.34
2022-10-15T14:35:04.179Z,68.33
2022-10-15T14:40:02.121Z,68.35
2022-10-15T14:45:02.292Z,68.35
2022-10-15T14:50:02.488Z,68.36
2022-10-15T14:55:08.276Z,68.35
2022-10-15T15:00:02.770Z,68.34
2022-10-15T15:05:02.837Z,68.39
2022-10-15T15:10:02.698Z,68.39
2022-10-15T15:15:02.644Z,68.41
2022-10-15T15:25:02.475Z,68.4
2022-10-15T15:30:02.706Z,68.39
2022-10-15T15:35:02.769Z,68.41
2022-10-15T15:40:02.584Z,68.41
2022-10-15T15:45:02.701Z,68.42
2022-10-15T15:50:02.659Z,68.48
2022-10-15T15:55:02.753Z,68.48
2022-10-15T16:00:02.956Z,68.52
2022-10-15T16:05:01.988Z,68.51
2022-10-15T16:10:02.162Z,68.57
2022-10-15T16:15:02.240Z,68.6
2022-10-15T16:20:02.413Z,68.63
2022-10-15T16:25:02.505Z,68.67
2022-10-15T16:30:03.259Z,68.7
2022-10-15T16:35:02.467Z,68.71
2022-10-15T16:40:02.348Z,68.77
2022-10-15T16:45:02.945Z,68.79
2022-10-15T16:50:03.021Z,68.84
2022-10-15T16:55:01.997Z,68.84
2022-10-15T17:00:02.049Z,68.9
2022-10-15T17:05:02.889Z,68.92
2022-10-15T17:10:02.789Z,68.97
2022-10-15T17:15:02.746Z,68.99
2022-10-15T17:20:02.888Z,69.01
2022-10-15T17:25:02.970Z,69.04
2022-10-15T17:30:01.922Z,69.09
2022-10-15T17:35:04.317Z,69.11
2022-10-15T17:40:02.644Z,69.16
2022-10-15T17:45:02.779Z,69.19
2022-10-15T17:50:02.833Z,69.21
2022-10-15T17:55:02.690Z,69.23
2022-10-15T18:00:02.455Z,69.28
2022-10-15T18:05:02.399Z,69.32
2022-10-15T18:10:02.307Z,69.35
2022-10-15T18:15:02.153Z,69.37
2022-10-15T18:20:01.957Z,69.38
2022-10-15T18:25:01.704Z,69.42
2022-10-15T18:30:02.424Z,69.44
2022-10-15T18:35:02.211Z,69.48
2022-10-15T18:40:02.088Z,69.48
2022-10-15T18:45:01.911Z,69.51
2022-10-15T18:50:02.774Z,69.56
2022-10-15T18:55:02.696Z,69.53
2022-10-15T19:00:02.737Z,69.57
2022-10-15T19:05:02.559Z,69.58
2022-10-15T19:10:02.458Z,69.61
2022-10-15T19:15:02.300Z,69.65
2022-10-15T19:20:02.141Z,69.63
2022-10-15T19:25:01.879Z,69.67
2022-10-15T19:30:02.629Z,69.69
2022-10-15T19:35:02.364Z,69.71
2022-10-15T19:40:02.085Z,69.73
2022-10-15T19:45:01.824Z,69.75
2022-10-15T19:50:02.565Z,69.77
2022-10-15T19:55:02.385Z,69.75
2022-10-15T20:00:02.230Z,69.79
2022-10-15T20:05:01.992Z,69.79
2022-10-15T20:10:01.865Z,69.8
2022-10-15T20:15:02.733Z,69.8
2022-10-15T20:20:02.584Z,69.83
2022-10-15T20:25:02.384Z,69.83
2022-10-15T20:30:02.186Z,69.86
2022-10-15T20:35:02.029Z,69.85
2022-10-15T20:40:01.881Z,69.88
2022-10-15T20:45:02.752Z,69.85
2022-10-15T20:50:02.594Z,69.84
2022-10-15T20:55:02.572Z,69.88
2022-10-15T21:00:02.405Z,69.88
2022-10-15T21:05:02.119Z,69.88
2022-10-15T21:10:02.011Z,69.86
2022-10-15T21:15:01.776Z,69.88
2022-10-15T21:20:02.625Z,69.88
2022-10-15T21:25:02.474Z,69.86
2022-10-15T21:30:02.285Z,69.85
2022-10-15T21:35:14.924Z,69.86
2022-10-15T21:40:08.683Z,69.89
2022-10-15T21:45:08.368Z,69.88
2022-10-15T21:50:08.052Z,69.87
2022-10-15T21:55:07.752Z,69.85
2022-10-15T22:00:08.518Z,69.85
2022-10-15T22:05:08.259Z,69.88
2022-10-15T22:10:07.996Z,69.85
2022-10-15T22:15:07.709Z,69.85
2022-10-15T22:20:08.433Z,69.86
2022-10-15T22:25:08.119Z,69.85
2022-10-15T22:30:07.836Z,69.86
2022-10-15T22:35:08.549Z,69.88
2022-10-15T22:40:08.225Z,69.87
2022-10-15T22:45:07.919Z,69.87
2022-10-15T22:50:08.664Z,69.86
2022-10-15T22:55:08.357Z,69.87
2022-10-15T23:01:01.324Z,69.86
2022-10-15T23:05:08.107Z,69.86
2022-10-15T23:10:07.843Z,69.88
2022-10-15T23:15:08.511Z,69.88
2022-10-15T23:20:08.225Z,69.88
2022-10-15T23:25:07.908Z,69.88
2022-10-15T23:30:21.051Z,69.88
2022-10-15T23:35:07.950Z,69.89
2022-10-15T23:40:07.701Z,69.89
2022-10-15T23:45:08.443Z,69.91
2022-10-15T23:50:08.130Z,69.91
2022-10-15T23:55:07.808Z,69.91
